sim
Sign-in with your pilot id or email,
or register
Callsign
Passwort

Schedule Details

Flight Number: DLH1861
Departure: Milan Malpensa Airport (LIMC) at 16:20
Arrival: Munich Airport (EDDM) at 17:30
Route: Lufthansa Passenger Schedule. Enter filed route here before submitting Pirep.

Weather Information
Getting current METAR information for LIMC 240020Z 01004KT 9999 BKN050 16/15 Q1010 NOSIG
Getting current METAR information for EDDM 240020Z 24001KT 9999 R26R/1100D NSC 12/11 Q1009 NOSIG

Schedule Frequency

Route Map